sensor_id;sensor_type;location;lat;lon;timestamp;P1;durP1;ratioP1;P2;durP2;ratioP2
9771;SDS011;4925;52.588;13.370;2022-07-21T00:01:46;10.32;;;5.60;;
9771;SDS011;4925;52.588;13.370;2022-07-21T00:04:12;9.50;;;5.57;;
9771;SDS011;4925;52.588;13.370;2022-07-21T00:06:37;7.82;;;5.05;;
9771;SDS011;4925;52.588;13.370;2022-07-21T00:09:03;6.97;;;4.97;;
9771;SDS011;4925;52.588;13.370;2022-07-21T00:11:28;10.38;;;5.57;;
9771;SDS011;4925;52.588;13.370;2022-07-21T00:13:54;10.05;;;5.38;;
9771;SDS011;4925;52.588;13.370;2022-07-21T00:16:19;12.02;;;5.22;;
9771;SDS011;4925;52.588;13.370;2022-07-21T00:18:45;11.52;;;5.43;;
9771;SDS011;4925;52.588;13.370;2022-07-21T00:21:11;8.88;;;5.35;;
9771;SDS011;4925;52.588;13.370;2022-07-21T00:23:36;8.82;;;5.25;;
9771;SDS011;4925;52.588;13.370;2022-07-21T00:26:02;8.18;;;6.25;;
9771;SDS011;4925;52.588;13.370;2022-07-21T00:28:27;6.93;;;6.22;;
9771;SDS011;4925;52.588;13.370;2022-07-21T00:30:53;8.40;;;5.45;;
9771;SDS011;4925;52.588;13.370;2022-07-21T00:33:19;7.20;;;5.40;;
9771;SDS011;4925;52.588;13.370;2022-07-21T00:35:44;8.93;;;5.72;;
9771;SDS011;4925;52.588;13.370;2022-07-21T00:38:10;9.45;;;6.40;;
9771;SDS011;4925;52.588;13.370;2022-07-21T00:40:35;9.18;;;5.35;;
9771;SDS011;4925;52.588;13.370;2022-07-21T00:43:01;8.57;;;6.03;;
9771;SDS011;4925;52.588;13.370;2022-07-21T00:45:27;9.15;;;5.40;;
9771;SDS011;4925;52.588;13.370;2022-07-21T00:47:52;8.27;;;5.55;;
9771;SDS011;4925;52.588;13.370;2022-07-21T00:50:18;11.63;;;5.60;;
9771;SDS011;4925;52.588;13.370;2022-07-21T00:52:45;9.07;;;5.30;;
9771;SDS011;4925;52.588;13.370;2022-07-21T00:55:12;7.70;;;6.10;;
9771;SDS011;4925;52.588;13.370;2022-07-21T00:57:40;8.90;;;5.60;;
9771;SDS011;4925;52.588;13.370;2022-07-21T01:00:07;8.90;;;5.20;;
9771;SDS011;4925;52.588;13.370;2022-07-21T01:02:34;8.82;;;5.07;;
9771;SDS011;4925;52.588;13.370;2022-07-21T01:05:07;6.25;;;5.03;;
9771;SDS011;4925;52.588;13.370;2022-07-21T01:07:37;7.70;;;5.30;;
9771;SDS011;4925;52.588;13.370;2022-07-21T01:10:04;9.20;;;5.47;;
9771;SDS011;4925;52.588;13.370;2022-07-21T01:12:30;7.50;;;5.72;;
9771;SDS011;4925;52.588;13.370;2022-07-21T01:14:56;9.98;;;5.88;;
9771;SDS011;4925;52.588;13.370;2022-07-21T01:17:22;8.50;;;6.22;;
9771;SDS011;4925;52.588;13.370;2022-07-21T01:19:47;7.82;;;5.45;;
9771;SDS011;4925;52.588;13.370;2022-07-21T01:22:13;10.57;;;5.55;;
9771;SDS011;4925;52.588;13.370;2022-07-21T01:24:39;6.43;;;5.82;;
9771;SDS011;4925;52.588;13.370;2022-07-21T01:27:05;12.43;;;5.68;;
9771;SDS011;4925;52.588;13.370;2022-07-21T01:29:30;7.63;;;5.55;;
9771;SDS011;4925;52.588;13.370;2022-07-21T01:31:56;6.93;;;5.18;;
9771;SDS011;4925;52.588;13.370;2022-07-21T01:34:22;10.45;;;6.18;;
9771;SDS011;4925;52.588;13.370;2022-07-21T01:36:47;10.57;;;6.13;;
9771;SDS011;4925;52.588;13.370;2022-07-21T01:39:13;12.77;;;5.80;;
9771;SDS011;4925;52.588;13.370;2022-07-21T01:41:58;8.02;;;6.05;;
9771;SDS011;4925;52.588;13.370;2022-07-21T01:44:24;10.38;;;5.57;;
9771;SDS011;4925;52.588;13.370;2022-07-21T01:46:50;9.13;;;5.40;;
9771;SDS011;4925;52.588;13.370;2022-07-21T01:49:17;8.77;;;6.03;;
9771;SDS011;4925;52.588;13.370;2022-07-21T01:51:45;10.07;;;5.90;;
9771;SDS011;4925;52.588;13.370;2022-07-21T01:54:11;8.88;;;5.55;;
9771;SDS011;4925;52.588;13.370;2022-07-21T01:56:37;7.55;;;5.35;;
9771;SDS011;4925;52.588;13.370;2022-07-21T01:59:04;9.60;;;6.07;;
9771;SDS011;4925;52.588;13.370;2022-07-21T02:01:30;12.60;;;5.80;;
9771;SDS011;4925;52.588;13.370;2022-07-21T02:03:57;8.52;;;5.30;;
9771;SDS011;4925;52.588;13.370;2022-07-21T02:06:24;8.98;;;5.68;;
9771;SDS011;4925;52.588;13.370;2022-07-21T02:08:50;8.30;;;5.80;;
9771;SDS011;4925;52.588;13.370;2022-07-21T02:11:16;7.55;;;5.43;;
9771;SDS011;4925;52.588;13.370;2022-07-21T02:13:42;9.20;;;5.55;;
9771;SDS011;4925;52.588;13.370;2022-07-21T02:16:08;9.90;;;5.40;;
9771;SDS011;4925;52.588;13.370;2022-07-21T02:18:36;6.10;;;5.50;;
9771;SDS011;4925;52.588;13.370;2022-07-21T02:21:02;11.95;;;5.97;;
9771;SDS011;4925;52.588;13.370;2022-07-21T02:23:28;9.13;;;5.40;;
9771;SDS011;4925;52.588;13.370;2022-07-21T02:25:54;9.57;;;5.43;;
9771;SDS011;4925;52.588;13.370;2022-07-21T02:28:22;6.60;;;5.47;;
9771;SDS011;4925;52.588;13.370;2022-07-21T02:30:49;6.13;;;5.00;;
9771;SDS011;4925;52.588;13.370;2022-07-21T02:33:15;5.95;;;4.85;;
9771;SDS011;4925;52.588;13.370;2022-07-21T02:35:41;8.25;;;5.25;;
9771;SDS011;4925;52.588;13.370;2022-07-21T02:38:07;7.03;;;4.93;;
9771;SDS011;4925;52.588;13.370;2022-07-21T02:40:32;8.00;;;5.40;;
9771;SDS011;4925;52.588;13.370;2022-07-21T02:42:58;10.60;;;5.32;;
9771;SDS011;4925;52.588;13.370;2022-07-21T02:45:24;6.10;;;5.38;;
9771;SDS011;4925;52.588;13.370;2022-07-21T02:47:54;5.13;;;4.57;;
9771;SDS011;4925;52.588;13.370;2022-07-21T02:50:22;7.50;;;5.03;;
9771;SDS011;4925;52.588;13.370;2022-07-21T02:52:50;5.85;;;5.07;;
9771;SDS011;4925;52.588;13.370;2022-07-21T02:55:18;7.18;;;4.72;;
9771;SDS011;4925;52.588;13.370;2022-07-21T02:57:44;7.53;;;4.60;;
9771;SDS011;4925;52.588;13.370;2022-07-21T03:00:09;9.02;;;5.45;;
9771;SDS011;4925;52.588;13.370;2022-07-21T03:02:35;6.75;;;5.03;;
9771;SDS011;4925;52.588;13.370;2022-07-21T03:05:01;5.88;;;4.45;;
9771;SDS011;4925;52.588;13.370;2022-07-21T03:07:28;8.40;;;4.80;;
9771;SDS011;4925;52.588;13.370;2022-07-21T03:09:53;11.32;;;5.32;;
9771;SDS011;4925;52.588;13.370;2022-07-21T03:12:19;9.50;;;5.05;;
9771;SDS011;4925;52.588;13.370;2022-07-21T03:14:44;7.03;;;5.03;;
9771;SDS011;4925;52.588;13.370;2022-07-21T03:17:10;9.63;;;4.45;;
9771;SDS011;4925;52.588;13.370;2022-07-21T03:19:35;6.65;;;4.78;;
9771;SDS011;4925;52.588;13.370;2022-07-21T03:22:01;5.05;;;4.15;;
9771;SDS011;4925;52.588;13.370;2022-07-21T03:24:27;6.38;;;4.65;;
9771;SDS011;4925;52.588;13.370;2022-07-21T03:26:54;5.78;;;4.93;;
9771;SDS011;4925;52.588;13.370;2022-07-21T03:29:20;7.70;;;4.85;;
9771;SDS011;4925;52.588;13.370;2022-07-21T03:31:45;8.90;;;4.68;;
9771;SDS011;4925;52.588;13.370;2022-07-21T03:34:11;7.43;;;5.05;;
9771;SDS011;4925;52.588;13.370;2022-07-21T03:36:36;6.50;;;4.80;;
9771;SDS011;4925;52.588;13.370;2022-07-21T03:39:02;9.15;;;4.70;;
9771;SDS011;4925;52.588;13.370;2022-07-21T03:41:27;5.95;;;4.40;;
9771;SDS011;4925;52.588;13.370;2022-07-21T03:43:54;10.95;;;4.72;;
9771;SDS011;4925;52.588;13.370;2022-07-21T03:46:19;6.25;;;4.43;;
9771;SDS011;4925;52.588;13.370;2022-07-21T03:48:45;12.13;;;5.05;;
9771;SDS011;4925;52.588;13.370;2022-07-21T03:51:10;6.50;;;4.65;;
9771;SDS011;4925;52.588;13.370;2022-07-21T03:53:36;7.03;;;4.38;;
9771;SDS011;4925;52.588;13.370;2022-07-21T03:56:01;6.88;;;4.40;;
9771;SDS011;4925;52.588;13.370;2022-07-21T03:58:27;6.85;;;4.03;;
9771;SDS011;4925;52.588;13.370;2022-07-21T04:00:52;8.50;;;4.10;;
9771;SDS011;4925;52.588;13.370;2022-07-21T04:03:18;6.55;;;4.97;;
9771;SDS011;4925;52.588;13.370;2022-07-21T04:05:44;9.98;;;4.53;;
9771;SDS011;4925;52.588;13.370;2022-07-21T04:08:10;7.22;;;4.90;;
9771;SDS011;4925;52.588;13.370;2022-07-21T04:10:38;13.63;;;4.65;;
9771;SDS011;4925;52.588;13.370;2022-07-21T04:13:06;7.95;;;4.57;;
9771;SDS011;4925;52.588;13.370;2022-07-21T04:15:34;6.97;;;4.00;;
9771;SDS011;4925;52.588;13.370;2022-07-21T04:18:01;6.35;;;4.55;;
9771;SDS011;4925;52.588;13.370;2022-07-21T04:20:27;10.25;;;4.22;;
9771;SDS011;4925;52.588;13.370;2022-07-21T04:22:53;5.93;;;4.47;;
9771;SDS011;4925;52.588;13.370;2022-07-21T04:25:19;8.32;;;4.95;;
9771;SDS011;4925;52.588;13.370;2022-07-21T04:27:45;6.43;;;4.03;;
9771;SDS011;4925;52.588;13.370;2022-07-21T04:30:13;5.93;;;4.60;;
9771;SDS011;4925;52.588;13.370;2022-07-21T04:32:41;8.52;;;4.85;;
9771;SDS011;4925;52.588;13.370;2022-07-21T04:35:06;11.25;;;5.00;;
9771;SDS011;4925;52.588;13.370;2022-07-21T04:37:33;9.32;;;4.75;;
9771;SDS011;4925;52.588;13.370;2022-07-21T04:39:59;9.30;;;5.00;;
9771;SDS011;4925;52.588;13.370;2022-07-21T04:42:25;10.25;;;4.95;;
9771;SDS011;4925;52.588;13.370;2022-07-21T04:44:51;7.38;;;4.68;;
9771;SDS011;4925;52.588;13.370;2022-07-21T04:47:16;12.02;;;4.70;;
9771;SDS011;4925;52.588;13.370;2022-07-21T04:49:42;6.30;;;4.50;;
9771;SDS011;4925;52.588;13.370;2022-07-21T04:52:08;14.77;;;5.30;;
9771;SDS011;4925;52.588;13.370;2022-07-21T04:54:33;12.70;;;5.53;;
9771;SDS011;4925;52.588;13.370;2022-07-21T04:56:59;11.73;;;5.05;;
9771;SDS011;4925;52.588;13.370;2022-07-21T04:59:27;8.68;;;4.90;;
9771;SDS011;4925;52.588;13.370;2022-07-21T05:01:54;9.45;;;5.82;;
9771;SDS011;4925;52.588;13.370;2022-07-21T05:04:19;9.88;;;5.75;;
9771;SDS011;4925;52.588;13.370;2022-07-21T05:06:45;15.70;;;7.82;;
9771;SDS011;4925;52.588;13.370;2022-07-21T05:09:10;16.80;;;9.93;;
9771;SDS011;4925;52.588;13.370;2022-07-21T05:11:36;23.70;;;10.05;;
9771;SDS011;4925;52.588;13.370;2022-07-21T05:14:01;15.20;;;11.70;;
9771;SDS011;4925;52.588;13.370;2022-07-21T05:16:27;16.60;;;11.68;;
9771;SDS011;4925;52.588;13.370;2022-07-21T05:18:53;17.13;;;11.77;;
9771;SDS011;4925;52.588;13.370;2022-07-21T05:21:19;16.65;;;11.40;;
9771;SDS011;4925;52.588;13.370;2022-07-21T05:23:44;20.70;;;11.88;;
9771;SDS011;4925;52.588;13.370;2022-07-21T05:26:10;14.05;;;11.60;;
9771;SDS011;4925;52.588;13.370;2022-07-21T05:28:37;15.20;;;11.55;;
9771;SDS011;4925;52.588;13.370;2022-07-21T05:31:02;16.27;;;11.90;;
9771;SDS011;4925;52.588;13.370;2022-07-21T05:33:28;15.80;;;13.02;;
9771;SDS011;4925;52.588;13.370;2022-07-21T05:35:54;17.02;;;11.95;;
9771;SDS011;4925;52.588;13.370;2022-07-21T05:38:19;18.40;;;13.07;;
9771;SDS011;4925;52.588;13.370;2022-07-21T05:40:45;16.17;;;13.07;;
9771;SDS011;4925;52.588;13.370;2022-07-21T05:43:10;19.58;;;12.80;;
9771;SDS011;4925;52.588;13.370;2022-07-21T05:45:36;20.63;;;14.30;;
9771;SDS011;4925;52.588;13.370;2022-07-21T05:48:02;25.60;;;14.18;;
9771;SDS011;4925;52.588;13.370;2022-07-21T05:50:27;22.98;;;14.02;;
9771;SDS011;4925;52.588;13.370;2022-07-21T05:52:53;18.10;;;14.65;;
9771;SDS011;4925;52.588;13.370;2022-07-21T05:55:18;16.38;;;12.73;;
9771;SDS011;4925;52.588;13.370;2022-07-21T05:57:43;19.95;;;14.48;;
9771;SDS011;4925;52.588;13.370;2022-07-21T06:00:09;18.38;;;13.90;;
9771;SDS011;4925;52.588;13.370;2022-07-21T06:02:35;19.45;;;13.95;;
9771;SDS011;4925;52.588;13.370;2022-07-21T06:05:01;22.17;;;15.50;;
9771;SDS011;4925;52.588;13.370;2022-07-21T06:07:27;20.25;;;13.82;;
9771;SDS011;4925;52.588;13.370;2022-07-21T06:09:53;20.60;;;14.60;;
9771;SDS011;4925;52.588;13.370;2022-07-21T06:12:18;18.27;;;15.02;;
9771;SDS011;4925;52.588;13.370;2022-07-21T06:14:44;17.27;;;14.27;;
9771;SDS011;4925;52.588;13.370;2022-07-21T06:17:09;23.45;;;14.70;;
9771;SDS011;4925;52.588;13.370;2022-07-21T06:19:35;23.05;;;13.95;;
9771;SDS011;4925;52.588;13.370;2022-07-21T06:22:01;23.15;;;13.93;;
9771;SDS011;4925;52.588;13.370;2022-07-21T06:24:29;16.75;;;14.20;;
9771;SDS011;4925;52.588;13.370;2022-07-21T06:26:54;18.45;;;13.13;;
9771;SDS011;4925;52.588;13.370;2022-07-21T06:29:22;15.57;;;12.88;;
9771;SDS011;4925;52.588;13.370;2022-07-21T06:31:48;18.55;;;13.15;;
9771;SDS011;4925;52.588;13.370;2022-07-21T06:34:13;17.33;;;13.73;;
9771;SDS011;4925;52.588;13.370;2022-07-21T06:36:39;16.70;;;14.50;;
9771;SDS011;4925;52.588;13.370;2022-07-21T06:39:04;14.38;;;12.88;;
9771;SDS011;4925;52.588;13.370;2022-07-21T06:41:30;17.92;;;13.90;;
9771;SDS011;4925;52.588;13.370;2022-07-21T06:43:56;15.55;;;13.05;;
9771;SDS011;4925;52.588;13.370;2022-07-21T06:46:22;19.08;;;13.70;;
9771;SDS011;4925;52.588;13.370;2022-07-21T06:48:47;19.75;;;13.30;;
9771;SDS011;4925;52.588;13.370;2022-07-21T06:51:13;14.68;;;12.30;;
9771;SDS011;4925;52.588;13.370;2022-07-21T06:53:39;14.25;;;12.13;;
9771;SDS011;4925;52.588;13.370;2022-07-21T06:56:04;24.60;;;13.60;;
9771;SDS011;4925;52.588;13.370;2022-07-21T06:58:30;18.73;;;13.02;;
9771;SDS011;4925;52.588;13.370;2022-07-21T07:00:57;21.35;;;13.50;;
9771;SDS011;4925;52.588;13.370;2022-07-21T07:03:23;16.45;;;13.20;;
9771;SDS011;4925;52.588;13.370;2022-07-21T07:05:48;17.98;;;12.75;;
9771;SDS011;4925;52.588;13.370;2022-07-21T07:08:14;17.80;;;13.00;;
9771;SDS011;4925;52.588;13.370;2022-07-21T07:10:40;19.58;;;13.38;;
9771;SDS011;4925;52.588;13.370;2022-07-21T07:13:07;20.77;;;13.38;;
9771;SDS011;4925;52.588;13.370;2022-07-21T07:15:32;15.70;;;12.90;;
9771;SDS011;4925;52.588;13.370;2022-07-21T07:17:59;19.23;;;13.05;;
9771;SDS011;4925;52.588;13.370;2022-07-21T07:20:25;14.18;;;11.25;;
9771;SDS011;4925;52.588;13.370;2022-07-21T07:22:51;15.77;;;11.98;;
9771;SDS011;4925;52.588;13.370;2022-07-21T07:25:16;18.35;;;11.82;;
9771;SDS011;4925;52.588;13.370;2022-07-21T07:27:46;14.48;;;12.35;;
9771;SDS011;4925;52.588;13.370;2022-07-21T07:30:14;18.70;;;12.25;;
9771;SDS011;4925;52.588;13.370;2022-07-21T07:32:40;16.20;;;11.45;;
9771;SDS011;4925;52.588;13.370;2022-07-21T07:35:07;17.23;;;11.52;;
9771;SDS011;4925;52.588;13.370;2022-07-21T07:37:37;17.98;;;11.63;;
9771;SDS011;4925;52.588;13.370;2022-07-21T07:40:05;13.25;;;11.10;;
9771;SDS011;4925;52.588;13.370;2022-07-21T07:42:33;18.02;;;12.23;;
9771;SDS011;4925;52.588;13.370;2022-07-21T07:44:59;13.43;;;11.40;;
9771;SDS011;4925;52.588;13.370;2022-07-21T07:47:25;15.05;;;11.75;;
9771;SDS011;4925;52.588;13.370;2022-07-21T07:49:52;18.45;;;10.93;;
9771;SDS011;4925;52.588;13.370;2022-07-21T07:52:18;15.85;;;11.27;;
9771;SDS011;4925;52.588;13.370;2022-07-21T07:54:44;17.42;;;11.60;;
9771;SDS011;4925;52.588;13.370;2022-07-21T07:57:10;14.02;;;10.43;;
9771;SDS011;4925;52.588;13.370;2022-07-21T07:59:36;13.85;;;10.98;;
9771;SDS011;4925;52.588;13.370;2022-07-21T08:02:02;14.85;;;10.55;;
9771;SDS011;4925;52.588;13.370;2022-07-21T08:04:27;15.98;;;11.07;;
9771;SDS011;4925;52.588;13.370;2022-07-21T08:06:53;15.82;;;11.38;;
9771;SDS011;4925;52.588;13.370;2022-07-21T08:09:19;12.40;;;9.70;;
9771;SDS011;4925;52.588;13.370;2022-07-21T08:11:45;12.48;;;9.68;;
9771;SDS011;4925;52.588;13.370;2022-07-21T08:14:12;15.57;;;10.13;;
9771;SDS011;4925;52.588;13.370;2022-07-21T08:16:39;14.75;;;10.43;;
9771;SDS011;4925;52.588;13.370;2022-07-21T08:19:04;13.35;;;10.60;;
9771;SDS011;4925;52.588;13.370;2022-07-21T08:21:30;10.82;;;9.70;;
9771;SDS011;4925;52.588;13.370;2022-07-21T08:23:57;11.98;;;9.52;;
9771;SDS011;4925;52.588;13.370;2022-07-21T08:26:23;13.73;;;8.65;;
9771;SDS011;4925;52.588;13.370;2022-07-21T08:28:49;15.30;;;10.55;;
9771;SDS011;4925;52.588;13.370;2022-07-21T08:31:15;10.65;;;9.48;;
9771;SDS011;4925;52.588;13.370;2022-07-21T08:33:41;15.23;;;10.02;;
9771;SDS011;4925;52.588;13.370;2022-07-21T08:36:06;11.95;;;9.18;;
9771;SDS011;4925;52.588;13.370;2022-07-21T08:38:32;10.93;;;9.57;;
9771;SDS011;4925;52.588;13.370;2022-07-21T08:40:57;10.45;;;9.25;;
9771;SDS011;4925;52.588;13.370;2022-07-21T08:43:23;16.48;;;9.38;;
9771;SDS011;4925;52.588;13.370;2022-07-21T08:45:49;10.20;;;9.13;;
9771;SDS011;4925;52.588;13.370;2022-07-21T08:48:15;14.40;;;9.10;;
9771;SDS011;4925;52.588;13.370;2022-07-21T08:50:44;11.65;;;8.95;;
9771;SDS011;4925;52.588;13.370;2022-07-21T08:53:09;14.27;;;9.77;;
9771;SDS011;4925;52.588;13.370;2022-07-21T08:55:36;13.85;;;9.30;;
9771;SDS011;4925;52.588;13.370;2022-07-21T08:58:07;12.15;;;9.45;;
9771;SDS011;4925;52.588;13.370;2022-07-21T09:00:33;14.15;;;9.35;;
9771;SDS011;4925;52.588;13.370;2022-07-21T09:03:15;15.18;;;9.27;;
9771;SDS011;4925;52.588;13.370;2022-07-21T09:05:58;12.02;;;8.95;;
9771;SDS011;4925;52.588;13.370;2022-07-21T09:08:36;8.80;;;7.90;;
9771;SDS011;4925;52.588;13.370;2022-07-21T09:11:07;10.23;;;8.13;;
9771;SDS011;4925;52.588;13.370;2022-07-21T09:13:38;12.80;;;8.82;;
9771;SDS011;4925;52.588;13.370;2022-07-21T09:16:04;10.95;;;8.57;;
9771;SDS011;4925;52.588;13.370;2022-07-21T09:18:30;12.75;;;7.90;;
9771;SDS011;4925;52.588;13.370;2022-07-21T09:20:56;10.20;;;7.53;;
9771;SDS011;4925;52.588;13.370;2022-07-21T09:23:24;12.90;;;7.60;;
9771;SDS011;4925;52.588;13.370;2022-07-21T09:25:51;12.15;;;8.52;;
9771;SDS011;4925;52.588;13.370;2022-07-21T09:30:50;9.45;;;7.63;;
9771;SDS011;4925;52.588;13.370;2022-07-21T09:33:26;11.80;;;8.18;;
9771;SDS011;4925;52.588;13.370;2022-07-21T09:36:10;11.88;;;8.15;;
9771;SDS011;4925;52.588;13.370;2022-07-21T09:38:54;10.60;;;7.72;;
9771;SDS011;4925;52.588;13.370;2022-07-21T09:41:21;9.40;;;7.20;;
9771;SDS011;4925;52.588;13.370;2022-07-21T09:46:20;8.32;;;7.07;;
9771;SDS011;4925;52.588;13.370;2022-07-21T09:48:49;9.32;;;7.60;;
9771;SDS011;4925;52.588;13.370;2022-07-21T09:51:20;9.43;;;6.90;;
9771;SDS011;4925;52.588;13.370;2022-07-21T09:54:00;9.48;;;7.03;;
9771;SDS011;4925;52.588;13.370;2022-07-21T09:56:29;10.85;;;6.75;;
9771;SDS011;4925;52.588;13.370;2022-07-21T09:58:57;7.55;;;6.63;;
9771;SDS011;4925;52.588;13.370;2022-07-21T10:01:23;8.57;;;6.40;;
9771;SDS011;4925;52.588;13.370;2022-07-21T10:03:50;11.48;;;7.15;;
9771;SDS011;4925;52.588;13.370;2022-07-21T10:06:18;7.75;;;6.30;;
9771;SDS011;4925;52.588;13.370;2022-07-21T10:08:45;9.82;;;6.25;;
9771;SDS011;4925;52.588;13.370;2022-07-21T10:11:11;8.90;;;6.30;;
9771;SDS011;4925;52.588;13.370;2022-07-21T10:13:38;7.55;;;6.43;;
9771;SDS011;4925;52.588;13.370;2022-07-21T10:16:05;6.93;;;6.28;;
9771;SDS011;4925;52.588;13.370;2022-07-21T10:18:58;8.45;;;5.95;;
9771;SDS011;4925;52.588;13.370;2022-07-21T10:21:40;7.70;;;6.35;;
9771;SDS011;4925;52.588;13.370;2022-07-21T10:24:26;6.72;;;5.65;;
9771;SDS011;4925;52.588;13.370;2022-07-21T10:32:13;12.05;;;5.63;;
9771;SDS011;4925;52.588;13.370;2022-07-21T10:34:43;8.25;;;4.95;;
9771;SDS011;4925;52.588;13.370;2022-07-21T10:37:09;8.52;;;4.95;;
9771;SDS011;4925;52.588;13.370;2022-07-21T10:39:36;9.75;;;5.10;;
9771;SDS011;4925;52.588;13.370;2022-07-21T10:42:14;6.15;;;4.82;;
9771;SDS011;4925;52.588;13.370;2022-07-21T10:44:44;6.43;;;4.20;;
9771;SDS011;4925;52.588;13.370;2022-07-21T10:47:11;8.20;;;4.82;;
9771;SDS011;4925;52.588;13.370;2022-07-21T10:49:50;12.48;;;4.40;;
9771;SDS011;4925;52.588;13.370;2022-07-21T10:57:38;7.60;;;4.97;;
9771;SDS011;4925;52.588;13.370;2022-07-21T11:00:15;8.75;;;4.78;;
9771;SDS011;4925;52.588;13.370;2022-07-21T11:02:41;5.82;;;4.22;;
9771;SDS011;4925;52.588;13.370;2022-07-21T11:05:07;8.10;;;5.07;;
9771;SDS011;4925;52.588;13.370;2022-07-21T11:10:37;7.22;;;4.80;;
9771;SDS011;4925;52.588;13.370;2022-07-21T11:13:04;17.63;;;12.80;;
9771;SDS011;4925;52.588;13.370;2022-07-21T11:18:18;5.93;;;4.00;;
9771;SDS011;4925;52.588;13.370;2022-07-21T11:21:06;5.60;;;4.70;;
9771;SDS011;4925;52.588;13.370;2022-07-21T11:23:37;4.55;;;4.05;;
9771;SDS011;4925;52.588;13.370;2022-07-21T11:26:07;5.03;;;4.63;;
9771;SDS011;4925;52.588;13.370;2022-07-21T11:28:34;5.55;;;4.40;;
9771;SDS011;4925;52.588;13.370;2022-07-21T11:31:10;12.02;;;4.65;;
9771;SDS011;4925;52.588;13.370;2022-07-21T11:33:45;4.35;;;3.90;;
9771;SDS011;4925;52.588;13.370;2022-07-21T11:38:58;4.68;;;4.28;;
9771;SDS011;4925;52.588;13.370;2022-07-21T11:41:25;6.60;;;4.72;;
9771;SDS011;4925;52.588;13.370;2022-07-21T11:43:51;8.13;;;4.65;;
9771;SDS011;4925;52.588;13.370;2022-07-21T11:46:16;6.00;;;4.57;;
9771;SDS011;4925;52.588;13.370;2022-07-21T11:48:42;7.82;;;5.15;;
9771;SDS011;4925;52.588;13.370;2022-07-21T11:51:07;8.18;;;4.28;;
9771;SDS011;4925;52.588;13.370;2022-07-21T11:53:33;7.72;;;4.45;;
9771;SDS011;4925;52.588;13.370;2022-07-21T11:55:59;6.93;;;4.70;;
9771;SDS011;4925;52.588;13.370;2022-07-21T11:58:24;6.20;;;4.43;;
9771;SDS011;4925;52.588;13.370;2022-07-21T12:01:03;8.82;;;5.00;;
9771;SDS011;4925;52.588;13.370;2022-07-21T12:03:29;5.95;;;4.85;;
9771;SDS011;4925;52.588;13.370;2022-07-21T12:05:55;7.25;;;5.20;;
9771;SDS011;4925;52.588;13.370;2022-07-21T12:08:21;8.95;;;4.97;;
9771;SDS011;4925;52.588;13.370;2022-07-21T12:10:47;6.63;;;4.10;;
9771;SDS011;4925;52.588;13.370;2022-07-21T12:13:13;5.40;;;4.35;;
9771;SDS011;4925;52.588;13.370;2022-07-21T12:15:38;6.10;;;4.72;;
9771;SDS011;4925;52.588;13.370;2022-07-21T12:18:07;6.60;;;4.82;;
9771;SDS011;4925;52.588;13.370;2022-07-21T12:20:44;7.13;;;4.93;;
9771;SDS011;4925;52.588;13.370;2022-07-21T12:23:27;6.65;;;5.18;;
9771;SDS011;4925;52.588;13.370;2022-07-21T12:25:56;6.22;;;4.40;;
9771;SDS011;4925;52.588;13.370;2022-07-21T12:31:11;6.28;;;4.63;;
9771;SDS011;4925;52.588;13.370;2022-07-21T12:33:39;5.68;;;4.05;;
9771;SDS011;4925;52.588;13.370;2022-07-21T12:36:06;5.00;;;4.35;;
9771;SDS011;4925;52.588;13.370;2022-07-21T12:38:37;8.10;;;4.65;;
9771;SDS011;4925;52.588;13.370;2022-07-21T12:41:08;6.35;;;4.90;;
9771;SDS011;4925;52.588;13.370;2022-07-21T12:43:34;5.32;;;4.55;;
9771;SDS011;4925;52.588;13.370;2022-07-21T12:46:04;27.83;;;21.45;;
9771;SDS011;4925;52.588;13.370;2022-07-21T12:48:36;10.50;;;9.32;;
9771;SDS011;4925;52.588;13.370;2022-07-21T12:51:07;7.68;;;5.68;;
9771;SDS011;4925;52.588;13.370;2022-07-21T12:53:48;5.50;;;4.07;;
9771;SDS011;4925;52.588;13.370;2022-07-21T12:56:16;8.85;;;5.32;;
9771;SDS011;4925;52.588;13.370;2022-07-21T12:58:44;8.38;;;4.90;;
9771;SDS011;4925;52.588;13.370;2022-07-21T13:01:10;8.05;;;4.65;;
9771;SDS011;4925;52.588;13.370;2022-07-21T13:03:36;6.97;;;4.60;;
9771;SDS011;4925;52.588;13.370;2022-07-21T13:06:03;4.93;;;4.43;;
9771;SDS011;4925;52.588;13.370;2022-07-21T13:08:30;6.13;;;4.70;;
9771;SDS011;4925;52.588;13.370;2022-07-21T13:10:56;9.30;;;5.68;;
9771;SDS011;4925;52.588;13.370;2022-07-21T13:13:22;10.15;;;5.15;;
9771;SDS011;4925;52.588;13.370;2022-07-21T13:15:48;5.93;;;4.97;;
9771;SDS011;4925;52.588;13.370;2022-07-21T13:18:14;6.70;;;5.03;;
9771;SDS011;4925;52.588;13.370;2022-07-21T13:20:39;6.80;;;5.35;;
9771;SDS011;4925;52.588;13.370;2022-07-21T13:23:05;6.28;;;5.55;;
9771;SDS011;4925;52.588;13.370;2022-07-21T13:25:31;8.32;;;6.00;;
9771;SDS011;4925;52.588;13.370;2022-07-21T13:27:56;9.15;;;5.70;;
9771;SDS011;4925;52.588;13.370;2022-07-21T13:30:22;9.40;;;6.25;;
9771;SDS011;4925;52.588;13.370;2022-07-21T13:32:47;9.60;;;6.22;;
9771;SDS011;4925;52.588;13.370;2022-07-21T13:35:13;12.05;;;6.20;;
9771;SDS011;4925;52.588;13.370;2022-07-21T13:37:39;8.60;;;6.68;;
9771;SDS011;4925;52.588;13.370;2022-07-21T13:40:05;19.65;;;7.10;;
9771;SDS011;4925;52.588;13.370;2022-07-21T13:42:31;8.40;;;6.50;;
9771;SDS011;4925;52.588;13.370;2022-07-21T13:44:56;7.65;;;5.57;;
9771;SDS011;4925;52.588;13.370;2022-07-21T13:47:22;6.80;;;5.72;;
9771;SDS011;4925;52.588;13.370;2022-07-21T13:49:48;5.97;;;5.20;;
9771;SDS011;4925;52.588;13.370;2022-07-21T13:52:14;7.28;;;5.38;;
9771;SDS011;4925;52.588;13.370;2022-07-21T13:54:39;6.78;;;5.93;;
9771;SDS011;4925;52.588;13.370;2022-07-21T13:57:05;6.30;;;5.70;;
9771;SDS011;4925;52.588;13.370;2022-07-21T13:59:31;4.90;;;4.50;;
9771;SDS011;4925;52.588;13.370;2022-07-21T14:01:57;7.15;;;5.60;;
9771;SDS011;4925;52.588;13.370;2022-07-21T14:04:23;7.75;;;4.85;;
9771;SDS011;4925;52.588;13.370;2022-07-21T14:06:49;5.68;;;4.85;;
9771;SDS011;4925;52.588;13.370;2022-07-21T14:09:15;18.67;;;15.43;;
9771;SDS011;4925;52.588;13.370;2022-07-21T14:11:42;17.25;;;12.65;;
9771;SDS011;4925;52.588;13.370;2022-07-21T14:14:08;21.85;;;18.40;;
9771;SDS011;4925;52.588;13.370;2022-07-21T14:16:34;5.80;;;5.30;;
9771;SDS011;4925;52.588;13.370;2022-07-21T14:19:00;6.60;;;4.65;;
9771;SDS011;4925;52.588;13.370;2022-07-21T14:21:25;5.05;;;4.55;;
9771;SDS011;4925;52.588;13.370;2022-07-21T14:23:51;4.50;;;4.10;;
9771;SDS011;4925;52.588;13.370;2022-07-21T14:26:37;4.55;;;4.18;;
9771;SDS011;4925;52.588;13.370;2022-07-21T14:29:04;4.65;;;4.20;;
9771;SDS011;4925;52.588;13.370;2022-07-21T14:31:30;4.93;;;4.03;;
9771;SDS011;4925;52.588;13.370;2022-07-21T14:33:56;6.38;;;3.90;;
9771;SDS011;4925;52.588;13.370;2022-07-21T14:36:21;5.72;;;4.32;;
9771;SDS011;4925;52.588;13.370;2022-07-21T14:38:47;8.95;;;4.07;;
9771;SDS011;4925;52.588;13.370;2022-07-21T14:41:12;4.53;;;4.18;;
9771;SDS011;4925;52.588;13.370;2022-07-21T14:43:38;5.32;;;3.97;;
9771;SDS011;4925;52.588;13.370;2022-07-21T14:46:03;4.35;;;3.95;;
9771;SDS011;4925;52.588;13.370;2022-07-21T14:48:29;4.28;;;3.88;;
9771;SDS011;4925;52.588;13.370;2022-07-21T14:50:54;4.28;;;3.88;;
9771;SDS011;4925;52.588;13.370;2022-07-21T14:53:20;5.90;;;3.85;;
9771;SDS011;4925;52.588;13.370;2022-07-21T14:55:45;3.72;;;3.30;;
9771;SDS011;4925;52.588;13.370;2022-07-21T14:58:11;3.88;;;3.60;;
9771;SDS011;4925;52.588;13.370;2022-07-21T15:00:36;4.85;;;4.25;;
9771;SDS011;4925;52.588;13.370;2022-07-21T15:03:02;5.07;;;3.80;;
9771;SDS011;4925;52.588;13.370;2022-07-21T15:05:27;4.32;;;3.92;;
9771;SDS011;4925;52.588;13.370;2022-07-21T15:07:53;4.43;;;3.80;;
9771;SDS011;4925;52.588;13.370;2022-07-21T15:10:18;4.28;;;3.80;;
9771;SDS011;4925;52.588;13.370;2022-07-21T15:12:44;3.90;;;3.60;;
9771;SDS011;4925;52.588;13.370;2022-07-21T15:15:10;3.90;;;3.60;;
9771;SDS011;4925;52.588;13.370;2022-07-21T15:17:36;4.57;;;3.45;;
9771;SDS011;4925;52.588;13.370;2022-07-21T15:20:02;5.07;;;4.35;;